Time;durP1;ratioP1;P1;durP2;ratioP2;P2;SDS_P1;SDS_P2;PMS_P1;PMS_P2;Temp;Humidity;BMP_temperature;BMP_pressure;BME280_temperature;BME280_humidity;BME280_pressure;Samples;Min_cycle;Max_cycle;Signal;HPM_P1;HPM_P2
2021/10/21 00:00:25;;;;;;;5.10;2.37;;;16.30;99.90;;;;;;5032712;28;20213;-77
2021/10/21 00:02:50;;;;;;;3.53;2.10;;;16.40;99.90;;;;;;5031116;28;20198;-76
2021/10/21 00:05:16;;;;;;;4.20;2.37;;;16.40;99.90;;;;;;5015272;28;20182;-76
2021/10/21 00:07:42;;;;;;;2.80;2.37;;;16.50;99.90;;;;;;5032582;28;20175;-76
2021/10/21 00:10:09;;;;;;;7.07;2.57;;;16.50;99.90;;;;;;5032788;28;20175;-76
2021/10/21 00:12:34;;;;;;;3.13;2.40;;;16.50;99.90;;;;;;5032343;28;20252;-77
2021/10/21 00:15:00;;;;;;;2.87;1.87;;;16.50;99.90;;;;;;5032567;28;20388;-78
2021/10/21 00:17:27;;;;;;;2.23;1.80;;;16.60;99.90;;;;;;5032352;28;20182;-77
2021/10/21 00:19:54;;;;;;;3.53;2.13;;;16.50;99.90;;;;;;5031221;28;20518;-77
2021/10/21 00:22:19;;;;;;;3.50;1.93;;;16.20;99.90;;;;;;5034026;28;20436;-76
2021/10/21 00:24:45;;;;;;;2.23;2.03;;;15.90;99.90;;;;;;5036266;28;20436;-77
2021/10/21 00:27:11;;;;;;;2.87;2.53;;;15.60;99.90;;;;;;5035090;28;20167;-78
2021/10/21 00:29:36;;;;;;;4.70;2.23;;;15.40;99.90;;;;;;5036177;28;20217;-78
2021/10/21 00:32:03;;;;;;;3.10;1.87;;;15.20;99.90;;;;;;5035738;28;20213;-77
2021/10/21 00:34:28;;;;;;;3.60;3.17;;;15.00;99.90;;;;;;5036901;28;20170;-79
2021/10/21 00:36:54;;;;;;;3.60;2.17;;;14.90;99.90;;;;;;5036147;28;20420;-78
2021/10/21 00:39:19;;;;;;;5.43;3.00;;;14.80;99.90;;;;;;5034717;28;20220;-78
2021/10/21 00:41:45;;;;;;;6.30;3.10;;;14.80;99.90;;;;;;5035650;28;20189;-77
2021/10/21 00:44:12;;;;;;;8.17;3.13;;;14.70;99.90;;;;;;5035872;28;20178;-76
2021/10/21 00:46:41;;;;;;;5.83;3.03;;;14.70;99.90;;;;;;5036100;28;20209;-77
2021/10/21 00:49:08;;;;;;;3.30;2.80;;;14.60;99.90;;;;;;5035828;28;20409;-76
2021/10/21 00:51:35;;;;;;;3.77;2.90;;;14.60;99.90;;;;;;5034155;28;20449;-78
2021/10/21 00:54:02;;;;;;;4.57;3.20;;;14.60;99.90;;;;;;5035756;28;20455;-77
2021/10/21 00:56:28;;;;;;;4.40;3.40;;;14.50;99.90;;;;;;5035832;28;20819;-77
2021/10/21 00:58:54;;;;;;;4.30;2.37;;;14.60;99.90;;;;;;5034554;28;20439;-76
2021/10/21 01:01:21;;;;;;;4.33;2.63;;;14.60;99.90;;;;;;5035368;28;20221;-76
2021/10/21 01:03:47;;;;;;;2.83;2.57;;;14.70;99.90;;;;;;5035485;28;20448;-76
2021/10/21 01:06:13;;;;;;;2.43;1.80;;;14.60;99.90;;;;;;5035530;28;20444;-77
2021/10/21 01:08:40;;;;;;;2.63;1.10;;;14.80;99.90;;;;;;5034250;28;20421;-78
2021/10/21 01:11:07;;;;;;;3.47;0.80;;;14.80;99.90;;;;;;5035101;28;20419;-77
2021/10/21 01:13:33;;;;;;;1.50;0.93;;;15.10;99.90;;;;;;5035332;28;20825;-78
2021/10/21 01:16:06;;;;;;;1.17;0.93;;;14.70;99.90;;;;;;5035149;28;20445;-78
2021/10/21 01:18:33;;;;;;;2.17;1.20;;;14.70;99.90;;;;;;5035057;28;20437;-77
2021/10/21 01:20:59;;;;;;;2.50;1.03;;;14.50;99.90;;;;;;5034947;28;20417;-79
2021/10/21 01:23:26;;;;;;;1.40;1.00;;;14.50;99.90;;;;;;5035257;28;20413;-77
2021/10/21 01:25:52;;;;;;;1.20;0.70;;;14.70;99.90;;;;;;5034022;28;20524;-76
2021/10/21 01:28:17;;;;;;;1.97;0.90;;;14.60;99.90;;;;;;5033751;28;20515;-77
2021/10/21 01:30:43;;;;;;;2.30;0.83;;;14.50;99.90;;;;;;5034988;28;20479;-75
2021/10/21 01:33:09;;;;;;;2.60;0.83;;;14.40;99.90;;;;;;5033466;28;20584;-78
2021/10/21 01:35:35;;;;;;;5.30;0.90;;;14.40;99.90;;;;;;5034056;28;20680;-76
2021/10/21 01:38:00;;;;;;;3.43;0.90;;;14.40;99.90;;;;;;5035119;28;20182;-74
2021/10/21 01:40:26;;;;;;;1.93;1.43;;;14.40;99.90;;;;;;5033619;28;20960;-77
2021/10/21 01:42:51;;;;;;;3.93;1.03;;;14.30;99.90;;;;;;5033197;28;20217;-77
2021/10/21 01:45:19;;;;;;;3.53;1.40;;;;;;;;;;5034944;28;20174;-76
2021/10/21 01:47:46;;;;;;;4.93;0.93;;;;;;;;;;5034868;28;20547;-77
2021/10/21 01:50:12;;;;;;;3.67;1.20;;;;;;;;;;5034622;28;20491;-75
2021/10/21 01:52:38;;;;;;;3.43;0.90;;;;;;;;;;5034212;28;20571;-77
2021/10/21 01:55:06;;;;;;;4.40;0.77;;;;;;;;;;5034784;28;20495;-75
2021/10/21 01:57:32;;;;;;;1.67;0.70;;;;;;;;;;5034731;28;20503;-76
2021/10/21 01:59:58;;;;;;;3.03;1.10;;;;;;;;;;5034518;28;20458;-75
2021/10/21 02:02:24;;;;;;;9.63;1.37;;;;;;;;;;5034082;28;20833;-76
2021/10/21 02:04:50;;;;;;;8.43;1.20;;;;;;;;;;5034376;28;20538;-77
2021/10/21 02:07:16;;;;;;;2.83;1.07;;;;;;;;;;5034386;28;20503;-77
2021/10/21 02:09:42;;;;;;;8.10;2.00;;;;;;;;;;5034349;28;20427;-76
2021/10/21 02:12:08;;;;;;;2.50;1.07;;;;;;;;;;5033887;28;20440;-76
2021/10/21 02:14:34;;;;;;;2.60;1.10;;;;;;;;;;5034082;28;20467;-76
2021/10/21 02:17:01;;;;;;;7.07;1.57;;;;;;;;;;5034128;28;20809;-77
2021/10/21 02:19:27;;;;;;;6.60;1.50;;;;;;;;;;5033935;28;20472;-75
2021/10/21 02:21:53;;;;;;;6.27;1.00;;;;;;;;;;5033854;28;20564;-75
2021/10/21 02:24:19;;;;;;;2.60;1.00;;;;;;;;;;5033985;28;20500;-77
2021/10/21 02:26:45;;;;;;;5.70;1.50;;;;;;;;;;5033811;28;20782;-75
2021/10/21 02:29:11;;;;;;;2.30;0.83;;;;;;;;;;5033952;28;20409;-76
2021/10/21 02:31:37;;;;;;;6.80;1.50;;;;;;;;;;5033455;28;20440;-76
2021/10/21 02:34:03;;;;;;;5.63;1.40;;;;;;;;;;5033877;28;20413;-75
2021/10/21 02:36:29;;;;;;;3.57;1.43;;;;;;;;;;5033888;28;20417;-75
2021/10/21 02:38:55;;;;;;;4.00;2.03;;;;;;;;;;5032398;28;20465;-77
2021/10/21 02:41:21;;;;;;;3.97;1.27;;;;;;;;;;5033280;28;20555;-77
2021/10/21 02:43:47;;;;;;;2.40;0.83;;;;;;;;;;5033467;28;20401;-75
2021/10/21 02:46:14;;;;;;;1.80;0.80;;;;;;;;;;5033347;28;20507;-76
2021/10/21 02:48:40;;;;;;;3.13;0.70;;;;;;;;;;5032537;28;20439;-78
2021/10/21 02:51:06;;;;;;;5.60;1.10;;;;;;;;;;5033271;28;20848;-77
2021/10/21 02:53:32;;;;;;;1.77;0.83;;;;;;;;;;5032778;28;20786;-77
2021/10/21 02:55:58;;;;;;;3.80;1.20;;;;;;;;;;5032423;28;20421;-77
2021/10/21 02:58:24;;;;;;;4.60;1.23;;;;;;;;;;5033506;28;20761;-76
2021/10/21 03:00:50;;;;;;;1.63;1.53;;;;;;;;;;5033303;28;20421;-76
2021/10/21 03:03:16;;;;;;;6.20;1.47;;;;;;;;;;5031808;28;20455;-76
2021/10/21 03:05:42;;;;;;;4.03;1.20;;;;;;;;;;5033342;28;20779;-76
2021/10/21 03:08:08;;;;;;;14.80;1.33;;;;;;;;;;5033341;28;20420;-77
2021/10/21 03:10:34;;;;;;;3.43;1.00;;;;;;;;;;5033207;28;20413;-77
2021/10/21 03:13:00;;;;;;;4.23;1.17;;;;;;;;;;5032828;28;20889;-77
2021/10/21 03:15:26;;;;;;;2.67;0.90;;;;;;;;;;5031939;28;20429;-75
2021/10/21 03:17:52;;;;;;;2.23;0.90;;;;;;;;;;5033017;28;20433;-76
2021/10/21 03:20:18;;;;;;;4.50;0.67;;;;;;;;;;5033053;28;20555;-75
2021/10/21 03:22:44;;;;;;;1.43;0.87;;;;;;;;;;5032723;28;20508;-77
2021/10/21 03:25:13;;;;;;;3.00;1.00;;;;;;;;;;5032969;28;20405;-76
2021/10/21 03:27:39;;;;;;;2.37;1.00;;;;;;;;;;5033057;28;20409;-75
2021/10/21 03:30:06;;;;;;;3.73;1.20;;;;;;;;;;5015378;28;20445;-77
2021/10/21 03:32:32;;;;;;;1.40;0.70;;;;;;;;;;5031381;28;20444;-77
2021/10/21 03:34:58;;;;;;;2.90;0.80;;;;;;;;;;5033005;28;20504;-77
2021/10/21 03:37:24;;;;;;;4.10;0.93;;;;;;;;;;5033127;28;20452;-75
2021/10/21 03:39:50;;;;;;;2.90;0.80;;;;;;;;;;5032905;28;20495;-77
2021/10/21 03:42:17;;;;;;;2.53;1.10;;;;;;;;;;5032785;28;20424;-77
2021/10/21 03:44:43;;;;;;;5.97;1.27;;;;;;;;;;5033140;28;20896;-77
2021/10/21 03:47:09;;;;;;;3.60;0.93;;;;;;;;;;5031719;28;20459;-77
2021/10/21 03:49:36;;;;;;;1.37;0.80;;;;;;;;;;5032893;28;20424;-76
2021/10/21 03:52:02;;;;;;;2.27;0.90;;;;;;;;;;5032576;28;20575;-75
2021/10/21 03:54:28;;;;;;;6.50;1.20;;;;;;;;;;5031597;28;20881;-77
2021/10/21 03:56:54;;;;;;;1.87;0.87;;;;;;;;;;5035811;28;20425;-76
2021/10/21 03:59:20;;;;;;;1.23;0.80;;;;;;;;;;5036529;28;20825;-76
2021/10/21 04:01:47;;;;;;;2.40;0.80;;;;;;;;;;5036796;28;20499;-75
2021/10/21 04:04:13;;;;;;;3.53;0.70;;;;;;;;;;5035431;28;20499;-77
2021/10/21 04:06:41;;;;;;;1.10;0.90;;;;;;;;;;5036664;28;20413;-77
2021/10/21 04:09:07;;;;;;;2.93;0.70;;;;;;;;;;5036577;28;20413;-75
2021/10/21 04:11:33;;;;;;;4.70;1.43;;;;;;;;;;5035924;28;20793;-76
2021/10/21 04:14:00;;;;;;;5.30;1.10;;;;;;;;;;5036564;28;20425;-75
2021/10/21 04:16:26;;;;;;;3.00;0.90;;;;;;;;;;5035155;28;20432;-75
2021/10/21 04:18:52;;;;;;;1.80;1.00;;;;;;;;;;5036343;28;20563;-75
2021/10/21 04:21:19;;;;;;;1.30;0.90;;;;;;;;;;5035781;28;20790;-77
2021/10/21 04:23:45;;;;;;;1.53;0.83;;;;;;;;;;5036053;28;20948;-76
2021/10/21 04:26:11;;;;;;;1.53;0.90;;;;;;;;;;5036260;28;20413;-76
2021/10/21 04:28:37;;;;;;;1.67;0.77;;;;;;;;;;5035000;28;20413;-77
2021/10/21 04:31:04;;;;;;;1.10;0.70;;;;;;;;;;5035710;28;20527;-77
2021/10/21 04:33:30;;;;;;;0.70;0.60;;;;;;;;;;5036275;28;20413;-76
2021/10/21 04:35:56;;;;;;;1.43;0.80;;;;;;;;;;5036108;28;20409;-75
2021/10/21 04:38:22;;;;;;;1.07;0.70;;;;;;;;;;5035977;28;20720;-76
2021/10/21 04:40:48;;;;;;;5.03;1.83;;;;;;;;;;5036019;28;20416;-79
2021/10/21 04:43:14;;;;;;;1.20;0.50;;;;;;;;;;5035708;28;20547;-76
2021/10/21 04:45:40;;;;;;;4.10;0.77;;;;;;;;;;5035831;28;20455;-77
2021/10/21 04:48:06;;;;;;;1.00;0.50;;;;;;;;;;5035860;28;20405;-77
2021/10/21 04:50:32;;;;;;;2.70;0.67;;;;;;;;;;5035969;28;20420;-76
2021/10/21 04:52:58;;;;;;;2.30;0.60;;;;;;;;;;5035694;28;20428;-76
2021/10/21 04:55:24;;;;;;;6.23;0.70;;;;;;;;;;5035914;28;20409;-76
2021/10/21 04:57:51;;;;;;;0.97;0.57;;;;;;;;;;5035509;28;20413;-78
2021/10/21 05:00:17;;;;;;;0.70;0.50;;;;;;;;;;5035663;28;20460;-76
2021/10/21 05:02:43;;;;;;;1.20;0.90;;;;;;;;;;5033922;28;20532;-78
2021/10/21 05:05:09;;;;;;;1.30;0.57;;;;;;;;;;5035532;28;20209;-78
2021/10/21 05:07:35;;;;;;;0.80;0.60;;;;;;;;;;5034970;28;20408;-77
2021/10/21 05:10:02;;;;;;;1.17;0.60;;;;;;;;;;5035390;28;20433;-77
2021/10/21 05:12:28;;;;;;;1.23;0.95;;;;;;;;;;5035093;28;20424;-77
2021/10/21 05:14:54;;;;;;;0.70;0.50;;;;;;;;;;5034059;28;20216;-78
2021/10/21 05:17:20;;;;;;;1.60;0.67;;;;;;;;;;5033962;28;20413;-78
2021/10/21 05:19:46;;;;;;;2.63;0.70;;;;;;;;;;5035150;28;20456;-78
2021/10/21 05:22:12;;;;;;;0.80;0.40;;;;;;;;;;5034788;28;20443;-78
2021/10/21 05:24:38;;;;;;;1.17;0.70;;;;;;;;;;5035150;28;20420;-78
2021/10/21 05:27:04;;;;;;;2.03;0.70;;;;;;;;;;5035142;28;20480;-75
2021/10/21 05:29:30;;;;;;;1.53;0.50;;;;;;;;;;5035048;28;20257;-77
2021/10/21 05:31:56;;;;;;;0.70;0.40;;;;;;;;;;5034642;28;20431;-77
2021/10/21 05:34:22;;;;;;;0.73;0.52;;;;;;;;;;5035001;28;20500;-76
2021/10/21 05:36:49;;;;;;;1.40;0.50;;;;;;;;;;5035137;28;20202;-77
2021/10/21 05:39:15;;;;;;;1.35;0.50;;;;;;;;;;5034824;28;20213;-77
2021/10/21 05:41:41;;;;;;;0.65;0.50;;;;;;;;;;5034616;28;20205;-78
2021/10/21 05:44:07;;;;;;;1.02;0.55;;;;;;;;;;5034775;28;20224;-79
2021/10/21 05:46:34;;;;;;;1.47;0.60;;;;;;;;;;5033512;28;20268;-79
2021/10/21 05:49:00;;;;;;;1.80;0.60;;;;;;;;;;5034835;28;20413;-79
2021/10/21 05:51:26;;;;;;;1.98;0.60;;;;;;;;;;5032991;28;20210;-78
2021/10/21 05:53:55;;;;;;;7.80;1.10;;;;;;;;;;5034843;28;20170;-80
2021/10/21 05:56:21;;;;;;;8.23;0.85;;;;;;;;;;5034603;28;20323;-80
2021/10/21 05:58:47;;;;;;;2.33;1.10;;;;;;;;;;5034756;28;20205;-78
2021/10/21 06:01:13;;;;;;;5.10;0.90;;;;;;;;;;5034319;28;20656;-77
2021/10/21 06:03:39;;;;;;;5.97;1.00;;;;;;;;;;5033243;28;20178;-77
2021/10/21 06:06:06;;;;;;;5.90;1.00;;;;;;;;;;5034473;28;20174;-78
2021/10/21 06:08:32;;;;;;;3.45;1.35;;;;;;;;;;5034474;28;20471;-80
2021/10/21 06:11:01;;;;;;;1.70;0.80;;;;;;;;;;5032928;28;20186;-79
2021/10/21 06:13:27;;;;;;;2.20;0.80;;;;;;;;;;5034463;28;20253;-82
2021/10/21 06:15:53;;;;;;;1.63;0.90;;;;;;;;;;5034319;28;20266;-79
2021/10/21 06:18:19;;;;;;;4.72;0.75;;;;;;;;;;5034078;28;20190;-81
2021/10/21 06:20:45;;;;;;;3.15;0.90;;;;;;;;;;5033226;28;20210;-79
2021/10/21 06:23:11;;;;;;;3.65;1.35;;;;;;;;;;5033786;28;20244;-79
2021/10/21 06:25:37;;;;;;;6.45;1.98;;;;;;;;;;5034111;28;20257;-79
2021/10/21 06:28:04;;;;;;;4.82;1.35;;;;;;;;;;5034096;28;20180;-79
2021/10/21 06:30:30;;;;;;;3.35;1.80;;;;;;;;;;5033888;28;20179;-79
2021/10/21 06:32:56;;;;;;;6.78;2.78;;;;;;;;;;5032392;28;20212;-81
2021/10/21 06:35:22;;;;;;;10.00;1.73;;;;;;;;;;5032800;28;20182;-78
2021/10/21 06:37:49;;;;;;;8.13;1.23;;;;;;;;;;5032624;28;20421;-77
2021/10/21 06:40:15;;;;;;;6.22;1.90;;;;;;;;;;5033828;28;20209;-79
2021/10/21 06:42:42;;;;;;;7.07;1.73;;;;;;;;;;5033285;28;20206;-78
2021/10/21 06:45:11;;;;;;;9.35;2.13;;;;;;;;;;5033842;28;20521;-79
2021/10/21 06:47:38;;;;;;;7.72;2.15;;;;;;;;;;5032721;28;20224;-79
2021/10/21 06:50:04;;;;;;;5.97;1.95;;;;;;;;;;5032371;28;20182;-78
2021/10/21 06:52:30;;;;;;;13.98;2.17;;;;;;;;;;5033224;28;20194;-79
2021/10/21 06:54:56;;;;;;;8.57;1.93;;;;;;;;;;5033494;28;20186;-78
2021/10/21 06:57:22;;;;;;;5.27;1.50;;;;;;;;;;5033961;28;20449;-78
2021/10/21 06:59:48;;;;;;;3.83;1.23;;;;;;;;;;5033515;28;20537;-76
2021/10/21 07:02:14;;;;;;;8.10;1.30;;;;;;;;;;5032075;28;20233;-77
2021/10/21 07:04:40;;;;;;;8.30;1.42;;;;;;;;;;5033567;28;20401;-78
2021/10/21 07:07:06;;;;;;;6.50;1.67;;;;;;;;;;5033450;28;20198;-77
2021/10/21 07:09:32;;;;;;;5.53;1.27;;;;;;;;;;5033353;28;20178;-78
2021/10/21 07:11:58;;;;;;;4.97;1.67;;;;;;;;;;5033068;28;20491;-77
2021/10/21 07:14:24;;;;;;;6.33;1.10;;;;;;;;;;5033311;28;20423;-80
2021/10/21 07:16:50;;;;;;;5.35;1.60;;;;;;;;;;5033180;28;20461;-76
2021/10/21 07:19:16;;;;;;;5.47;2.58;;;;;;;;;;5032934;28;20205;-79
2021/10/21 07:21:43;;;;;;;3.30;1.20;;;;;;;;;;5032953;28;20259;-75
2021/10/21 07:24:09;;;;;;;5.07;1.58;;;;;;;;;;5033100;28;20405;-78
2021/10/21 07:26:35;;;;;;;9.05;1.83;;;;;;;;;;5033030;28;20258;-78
2021/10/21 07:29:01;;;;;;;4.40;1.30;;;;;;;;;;5031722;28;20240;-79
2021/10/21 07:31:27;;;;;;;3.63;1.33;;;;;;;;;;5032519;28;20437;-76
2021/10/21 07:33:53;;;;;;;3.20;1.00;;;;;;;;;;5033110;28;20417;-75
2021/10/21 07:36:20;;;;;;;5.20;1.67;;;;;;;;;;5031778;28;20185;-77
2021/10/21 07:38:48;;;;;;;4.32;1.50;;;;;;;;;;5032928;28;20166;-75
2021/10/21 07:41:14;;;;;;;6.97;2.10;;;;;;;;;;5032554;28;20174;-75
2021/10/21 07:43:40;;;;;;;5.43;1.80;;;;;;;;;;5032719;28;20174;-77
2021/10/21 07:46:06;;;;;;;3.17;1.53;;;;;;;;;;5032932;28;20738;-78
2021/10/21 07:48:32;;;;;;;6.05;2.28;;;;;;;;;;5033230;28;20420;-76
2021/10/21 07:50:58;;;;;;;3.75;1.50;;;;;;;;;;5031305;28;20222;-76
2021/10/21 07:53:26;;;;;;;5.05;1.83;;;;;;;;;;5033058;28;20174;-76
2021/10/21 07:55:52;;;;;;;9.82;2.08;;;;;;;;;;5033104;28;20175;-78
2021/10/21 07:58:18;;;;;;;4.20;1.58;;;;;;;;;;5032930;28;20181;-74
2021/10/21 08:00:44;;;;;;;9.38;2.00;;;;;;;;;;5031588;28;20206;-76
2021/10/21 08:03:10;;;;;;;9.55;2.15;;;;;;;;;;5032431;28;20194;-76
2021/10/21 08:05:36;;;;;;;6.70;2.00;;;;;;;;;;5031635;28;20175;-78
2021/10/21 08:08:04;;;;;;;8.63;2.10;;;;;;;;;;5032812;28;20409;-77
2021/10/21 08:10:30;;;;;;;7.32;2.17;;;;;;;;;;5032682;28;20261;-78
2021/10/21 08:12:57;;;;;;;8.30;1.77;;;;;;;;;;5032362;28;20194;-79
2021/10/21 08:15:24;;;;;;;7.82;2.85;;;;;;;;;;5032703;28;20186;-79
2021/10/21 08:17:50;;;;;;;5.90;1.80;;;;;;;;;;5032556;28;20192;-76
2021/10/21 08:20:16;;;;;;;6.53;1.83;;;;;;;;;;5032629;28;20252;-76
2021/10/21 08:22:43;;;;;;;7.00;1.70;;;;;;;;;;5032300;28;20194;-77
2021/10/21 08:25:11;;;;;;;8.95;1.80;;;;;;;;;;5031467;28;20217;-76
2021/10/21 08:27:37;;;;;;;9.93;2.63;;;;;;;;;;5032588;28;20166;-78
2021/10/21 08:30:03;;;;;;;11.70;2.95;;;;;;;;;;5032615;28;20538;-77
2021/10/21 08:32:30;;;;;;;14.43;3.58;;;;;;;;;;5032265;28;20194;-80
2021/10/21 08:34:56;;;;;;;8.38;4.05;;;;;;;;;;5032595;28;20221;-78
2021/10/21 08:37:23;;;;;;;7.13;1.75;;;;;;;;;;5031138;28;20205;-80
2021/10/21 08:39:49;;;;;;;6.40;1.60;;;;;;;;;;5032391;28;20244;-78
2021/10/21 08:42:17;;;;;;;7.57;2.15;;;;;;;;;;5032289;28;20212;-78
2021/10/21 08:44:44;;;;;;;14.10;2.50;;;;;;;;;;5036082;28;20258;-76
2021/10/21 08:47:10;;;;;;;13.32;2.22;;;;;;;;;;5034939;28;20174;-78
2021/10/21 08:49:37;;;;;;;5.68;2.65;;;;;;;;;;5035990;28;20212;-78
2021/10/21 08:52:04;;;;;;;7.22;2.15;;;;;;;;;;5035584;28;20658;-77
2021/10/21 08:54:30;;;;;;;3.85;1.92;;;;;;;;;;5035726;28;20611;-79
2021/10/21 08:56:56;;;;;;;8.93;2.38;;;;;;;;;;5034402;28;20650;-76
2021/10/21 08:59:22;;;;;;;5.10;1.93;;;;;;;;;;5034291;28;20301;-78
2021/10/21 09:01:52;;;;;;;9.60;2.50;;;;;;;;;;5033836;28;20571;-77
2021/10/21 09:09:41;;;;;;;6.10;1.55;;;;;;;;;;5035699;28;20181;-79
2021/10/21 09:12:10;;;;;;;4.93;1.60;;;;;;;;;;5035113;28;20190;-79
2021/10/21 09:14:41;;;;;;;3.10;1.27;;;;;;;;;;5035556;28;20421;-77
2021/10/21 09:17:08;;;;;;;4.82;1.20;;;;;;;;;;5035396;28;20650;-78
2021/10/21 09:19:35;;;;;;;1.90;1.05;;;;;;;;;;5035038;28;20206;-76
2021/10/21 09:22:02;;;;;;;5.60;1.63;;;;;;;;;;5034874;28;20198;-76
2021/10/21 09:24:32;;;;;;;3.13;1.10;;;;;;;;;;5035308;28;20906;-76
2021/10/21 09:27:01;;;;;;;4.23;1.17;;;;;;;;;;5035188;28;20444;-76
2021/10/21 09:29:27;;;;;;;4.28;1.80;;;;;;;;;;5035046;28;20780;-74
2021/10/21 09:32:07;;;;;;;8.30;1.33;;;;;;;;;;5033245;28;20226;-77
2021/10/21 09:34:53;;;;;;;7.60;1.37;;;;;;;;;;5034826;28;20413;-77
2021/10/21 09:37:36;;;;;;;4.25;1.52;;;;;;;;;;5034812;28;20443;-77
2021/10/21 09:40:04;;;;;;;4.07;1.57;;;;;;;;;;5034587;28;20194;-80
2021/10/21 09:42:37;;;;;;;9.10;1.57;;;;;;;;;;5034594;28;20471;-77
2021/10/21 09:45:16;;;;;;;3.25;1.25;;;;;;;;;;5035093;28;20428;-77
2021/10/21 09:47:45;;;;;;;6.28;1.17;;;;;;;;;;5034918;28;20166;-78
2021/10/21 09:50:36;;;;;;;10.40;2.47;;;;;;;;;;5034567;28;20592;-77
2021/10/21 09:53:22;;;;;;;4.93;1.27;;;;;;;;;;5031940;28;20234;-78
2021/10/21 09:55:52;;;;;;;8.23;1.88;;;;;;;;;;5034817;28;20642;-76
2021/10/21 09:58:23;;;;;;;13.20;2.28;;;;;;;;;;5034758;28;20546;-78
2021/10/21 10:00:50;;;;;;;8.85;2.45;;;;;;;;;;5034341;28;20619;-74
2021/10/21 10:03:20;;;;;;;3.92;1.65;;;;;;;;;;5034364;28;20214;-75
2021/10/21 10:05:53;;;;;;;6.47;1.67;;;;;;;;;;5034548;28;20635;-77
2021/10/21 10:08:31;;;;;;;9.57;2.10;;;;;;;;;;5034240;28;20463;-76
2021/10/21 10:11:01;;;;;;;9.43;2.00;;;;;;;;;;5032758;28;20232;-74
2021/10/21 10:13:28;;;;;;;9.95;2.05;;;;;;;;;;5034282;28;20177;-74
2021/10/21 10:15:55;;;;;;;8.43;1.83;;;;;;;;;;5034154;28;20642;-76
2021/10/21 10:18:23;;;;;;;9.60;1.75;;;;;;;;;;5033974;28;20429;-74
2021/10/21 10:20:52;;;;;;;4.60;1.83;;;;;;;;;;5034042;28;20205;-79
2021/10/21 10:23:19;;;;;;;8.60;1.50;;;;;;;;;;5033870;28;20194;-76
2021/10/21 10:25:49;;;;;;;5.13;1.63;;;;;;;;;;5034117;28;20174;-77
2021/10/21 10:28:15;;;;;;;11.57;2.30;;;;;;;;;;5033989;28;20444;-79
2021/10/21 10:30:43;;;;;;;6.20;1.83;;;;;;;;;;5033809;28;20416;-78
2021/10/21 10:33:09;;;;;;;4.40;1.63;;;;;;;;;;5033452;28;20479;-78
2021/10/21 10:35:41;;;;;;;7.28;2.08;;;;;;;;;;5033919;28;20441;-79
2021/10/21 10:38:08;;;;;;;7.07;1.58;;;;;;;;;;5033743;28;20261;-77
2021/10/21 10:40:57;;;;;;;3.33;1.57;;;;;;;;;;5033608;28;20198;-76
2021/10/21 10:43:37;;;;;;;8.23;1.80;;;;;;;;;;5030573;28;20987;-76
2021/10/21 10:46:03;;;;;;;7.53;2.07;;;;;;;;;;5034002;28;20494;-75
2021/10/21 10:48:50;;;;;;;12.20;2.30;;;;;;;;;;5032219;28;20559;-78
2021/10/21 10:51:16;;;;;;;5.97;3.73;;;;;;;;;;5033274;28;20405;-78
2021/10/21 10:53:42;;;;;;;6.53;1.37;;;;;;;;;;5033677;28;20421;-78
2021/10/21 10:56:08;;;;;;;3.75;1.55;;;;;;;;;;5033444;28;20405;-77
2021/10/21 10:58:34;;;;;;;5.60;1.53;;;;;;;;;;5031960;28;20186;-78
2021/10/21 11:01:01;;;;;;;5.93;1.17;;;;;;;;;;5033179;28;20449;-77
2021/10/21 11:03:32;;;;;;;7.03;1.53;;;;;;;;;;5033302;28;20417;-79
2021/10/21 11:06:02;;;;;;;6.20;1.97;;;;;;;;;;5032810;28;20409;-77
2021/10/21 11:08:53;;;;;;;5.33;1.90;;;;;;;;;;5032308;28;20495;-76
2021/10/21 11:11:37;;;;;;;11.07;2.50;;;;;;;;;;5032995;28;20440;-77
2021/10/21 11:14:12;;;;;;;3.53;1.33;;;;;;;;;;5033157;28;20412;-77
2021/10/21 11:16:43;;;;;;;4.83;1.43;;;;;;;;;;5033118;28;20750;-78
2021/10/21 11:19:10;;;;;;;7.30;1.80;;;;;;;;;;5031917;28;20464;-75
2021/10/21 11:21:51;;;;;;;4.60;1.97;;;;;;;;;;5031453;28;20448;-78
2021/10/21 11:24:36;;;;;;;4.70;1.40;;;;;;;;;;5033172;28;20464;-76
2021/10/21 11:27:08;;;;;;;7.30;1.63;;;;;;;;;;5033008;28;20397;-78
2021/10/21 11:29:34;;;;;;;4.13;1.40;;;;;;;;;;5033017;28;20409;-73
2021/10/21 11:32:01;;;;;;;11.97;1.37;;;;;;;;;;5031363;28;20515;-77
2021/10/21 11:34:27;;;;;;;7.83;1.83;;;;;;;;;;5033046;28;20496;-76
2021/10/21 11:36:53;;;;;;;4.63;1.00;;;;;;;;;;5032795;28;20409;-75
2021/10/21 11:39:29;;;;;;;5.40;1.27;;;;;;;;;;5031597;28;20495;-77
2021/10/21 11:41:55;;;;;;;2.53;1.00;;;;;;;;;;5031357;28;20571;-77
2021/10/21 11:44:22;;;;;;;5.77;1.30;;;;;;;;;;5033050;28;20427;-77
2021/10/21 11:46:55;;;;;;;3.00;1.30;;;;;;;;;;5031801;28;20415;-77
2021/10/21 11:49:34;;;;;;;5.03;1.30;;;;;;;;;;5033015;28;20413;-78
2021/10/21 11:52:10;;;;;;;5.70;1.20;;;;;;;;;;5032533;28;20543;-77
2021/10/21 11:54:36;;;;;;;4.47;1.40;;;;;;;;;;5032916;28;20421;-79
2021/10/21 11:57:03;;;;;;;5.20;1.57;;;;;;;;;;5032753;28;20417;-79
2021/10/21 11:59:39;;;;;;;6.63;1.33;;;;;;;;;;5032663;28;20492;-77
2021/10/21 12:02:10;;;;;;;4.50;1.60;;;;;;;;;;5031055;28;20437;-79
2021/10/21 12:04:36;;;;;;;7.07;1.20;;;;;;;;;;5032881;28;20404;-79
2021/10/21 12:07:02;;;;;;;5.43;1.60;;;;;;;;;;5032688;28;20772;-77
2021/10/21 12:09:31;;;;;;;2.72;1.10;;;;;;;;;;5031507;28;20995;-79
2021/10/21 12:12:15;;;;;;;7.15;1.55;;;;;;;;;;5032432;28;20619;-80
2021/10/21 12:14:47;;;;;;;4.70;1.55;;;;;;;;;;5032689;28;20257;-79
2021/10/21 12:17:14;;;;;;;7.25;1.95;;;;;;;;;;5032744;28;20189;-79
2021/10/21 12:19:40;;;;;;;5.72;1.40;;;;;;;;;;5035068;28;20718;-79
2021/10/21 12:22:18;;;;;;;8.52;2.05;;;;;;;;;;5035911;28;20731;-80
2021/10/21 12:24:45;;;;;;;11.40;1.85;;;;;;;;;;5035113;28;20193;-78
2021/10/21 12:27:18;;;;;;;2.75;1.23;;;;;;;;;;5036165;28;20170;-80
2021/10/21 12:29:44;;;;;;;5.82;1.30;;;;;;;;;;5036390;28;20170;-78
2021/10/21 12:32:10;;;;;;;1.40;0.57;;;;;;;;;;5034328;28;20206;-79
2021/10/21 12:34:36;;;;;;;5.78;1.05;;;;;;;;;;5035927;28;20181;-79
2021/10/21 12:37:08;;;;;;;2.10;0.90;;;;;;;;;;5035801;28;20196;-80
2021/10/21 12:39:34;;;;;;;3.70;1.55;;;;;;;;;;5034471;28;20219;-79
2021/10/21 12:42:02;;;;;;;3.15;0.68;;;;;;;;;;5035529;28;20244;-79
2021/10/21 12:44:32;;;;;;;1.80;0.88;;;;;;;;;;5035964;28;20194;-78
2021/10/21 12:47:07;;;;;;;1.70;1.10;;;;;;;;;;5035994;28;20249;-79
2021/10/21 12:49:33;;;;;;;3.10;1.23;;;;;;;;;;5036053;28;20252;-78
2021/10/21 12:52:11;;;;;;;4.25;1.30;;;;;;;;;;5035518;28;20203;-76
2021/10/21 12:54:38;;;;;;;4.50;1.50;;;;;;;;;;5035839;28;20178;-79
2021/10/21 12:57:05;;;;;;;1.63;1.40;;;;;;;;;;5034838;28;20174;-78
2021/10/21 12:59:32;;;;;;;1.50;1.15;;;;;;;;;;5035748;28;20259;-76
2021/10/21 13:01:58;;;;;;;3.08;1.00;;;;;;;;;;5035446;28;20200;-76
2021/10/21 13:04:44;;;;;;;2.72;1.20;;;;;;;;;;5035736;28;20182;-77
2021/10/21 13:07:12;;;;;;;3.08;1.00;;;;;;;;;;5035771;28;20182;-77
2021/10/21 13:09:38;;;;;;;1.67;0.82;;;;;;;;;;5035519;28;20560;-78
2021/10/21 13:12:04;;;;;;;3.20;1.23;;;;;;;;;;5035162;28;20202;-76
2021/10/21 13:14:35;;;;;;;2.65;1.15;;;;;;;;;;5035692;28;20186;-76
2021/10/21 13:17:01;;;;;;;2.25;1.25;;;;;;;;;;5035669;28;20171;-77
2021/10/21 13:19:27;;;;;;;4.95;1.52;;;;;;;;;;5035289;28;20263;-77
2021/10/21 13:21:54;;;;;;;3.25;1.63;;;;;;;;;;5034888;28;20535;-77
2021/10/21 13:24:19;;;;;;;3.17;1.50;;;;;;;;;;5035379;28;20169;-77
2021/10/21 13:26:45;;;;;;;2.83;1.87;;;;;;;;;;5035411;28;20175;-78
2021/10/21 13:29:12;;;;;;;2.97;2.08;;;;;;;;;;5034717;28;20419;-76
2021/10/21 13:31:39;;;;;;;3.72;2.25;;;;;;;;;;5034639;28;20289;-77
2021/10/21 13:34:05;;;;;;;4.80;2.53;;;;;;;;;;5035073;28;20181;-78
2021/10/21 13:36:31;;;;;;;7.40;2.20;;;;;;;;;;5035067;28;20650;-78
2021/10/21 13:38:57;;;;;;;4.50;2.33;;;;;;;;;;5034870;28;20268;-77
2021/10/21 13:41:23;;;;;;;3.87;2.10;;;;;;;;;;5034582;28;20190;-77
2021/10/21 13:43:49;;;;;;;2.28;1.95;;;;;;;;;;5034759;28;20413;-77
2021/10/21 13:46:17;;;;;;;3.17;2.10;;;;;;;;;;5034690;28;20181;-76
2021/10/21 13:48:44;;;;;;;2.92;1.80;;;;;;;;;;5034866;28;20182;-77
2021/10/21 13:51:10;;;;;;;3.47;1.80;;;;;;;;;;5033155;28;20228;-78
2021/10/21 13:53:36;;;;;;;2.37;1.70;;;;;;;;;;5034821;28;20174;-78
2021/10/21 13:56:03;;;;;;;1.95;1.75;;;;;;;;;;5034548;28;20409;-77
2021/10/21 13:58:29;;;;;;;3.58;2.35;;;;;;;;;;5033355;28;20174;-78
2021/10/21 14:00:56;;;;;;;6.35;2.38;;;;;;;;;;5034393;28;20271;-79
2021/10/21 14:03:22;;;;;;;3.67;2.15;;;;;;;;;;5034699;28;20577;-77
2021/10/21 14:05:48;;;;;;;8.00;2.05;;;;;;;;;;5034699;28;20253;-77
2021/10/21 14:08:14;;;;;;;4.15;2.00;;;;;;;;;;5034479;28;20205;-77
2021/10/21 14:10:43;;;;;;;2.95;2.50;;;;;;;;;;5034522;28;20577;-75
2021/10/21 14:13:10;;;;;;;3.15;1.90;;;;;;;;;;5033845;28;20215;-77
2021/10/21 14:15:40;;;;;;;2.55;1.98;;;;;;;;;;5034226;28;20174;-76
2021/10/21 14:18:06;;;;;;;2.70;2.17;;;;;;;;;;5033759;28;20238;-77
2021/10/21 14:20:32;;;;;;;10.13;2.90;;;;;;;;;;5033961;28;20240;-77
2021/10/21 14:22:58;;;;;;;5.18;1.52;;;;;;;;;;5033747;28;20186;-77
2021/10/21 14:25:24;;;;;;;4.05;1.60;;;;;;;;;;5034021;28;20170;-77
2021/10/21 14:27:51;;;;;;;1.40;1.13;;;;;;;;;;5034062;28;20176;-79
2021/10/21 14:30:17;;;;;;;7.43;1.50;;;;;;;;;;5033900;28;20413;-76
2021/10/21 14:32:43;;;;;;;5.18;1.55;;;;;;;;;;5033573;28;20284;-77